x

New London Ledge Ct - Ledge Light Weather Station (ldlc3) Weather Station

6:05am - Thu 29th Sep 2016 All times are EDT. -4 hours from GMT.

  • Wind
    14mph, 18mph gusts
  • Air Temp 59°f
  • Sea Pressure 1026.5mb
  • New London Ledge Ct - Ledge Light Weather Station
  • New London Ledge Ct - Ledge Light Weather Station

More Historic Weather Station data

Upgrade to MSW Pro to gain access to the past 30 days of data for over 8000 Wavebouys and Weather Stations around the globe.

Join Pro

Comparision Forecast

View Surf forecast
   
Thu 09/29 6:05am 14 18 mph 1026.5mb 59f
5:50am 13 17 mph 1026.5mb 60f
5:35am 14 17 mph 1026.3mb 60f
5:20am 13 18 mph 1026.3mb 60f
5:05am 15 21 mph 1026mb 60f
4:50am 11 16 mph 1025.8mb 60f
4:35am 13 17 mph 1025.8mb 60f
4:20am 15 21 mph 1025.4mb 60f
4:05am 16 22 mph 1025.1mb 60f
3:50am 15 22 mph 1025.1mb 60f
3:35am 16 25 mph 1025mb 60f
3:20am 15 23 mph 1025mb 60f
3:05am 13 21 mph 1025.1mb 60f
2:50am 15 21 mph 1025mb 60f
2:35am 17 26 mph 1024.9mb 60f
2:20am 14 20 mph 1025mb 60f
2:05am 16 23 mph 1024.6mb 60f
1:50am 13 21 mph 1024.7mb 60f
1:35am 14 20 mph 1024.6mb 60f
1:20am 13 23 mph 1024.6mb 60f
1:05am 14 23 mph 1024.5mb 60f
Wed 09/28 7:50pm 16 23 mph 1022.8mb 58f
7:35pm 14 21 mph 1022.5mb 58f
7:20pm 18 26 mph 1022.4mb 58f
7:05pm 16 23 mph 1022.4mb 58f
6:50pm 16 25 mph 1022.4mb 58f
6:35pm 13 20 mph 1022.3mb 58f
6:20pm 16 23 mph 1021.9mb 58f
6:05pm 13 20 mph 1022.2mb 59f
5:50pm 17 28 mph 1021.9mb 59f
5:35pm 18 30 mph 1022mb 59f
5:20pm 17 26 mph 1021.8mb 59f
5:05pm 17 29 mph 1021.7mb 59f
4:50pm 21 29 mph 1021.4mb 59f
4:35pm 15 21 mph 1021.4mb 60f
4:20pm 18 28 mph 1021.1mb 60f
4:05pm 14 18 mph 1021mb 61f
3:50pm 17 32 mph 1021mb 61f
3:35pm 15 20 mph 1021.1mb 62f
3:20pm 17 28 mph 1021.2mb 62f
3:05pm 17 24 mph 1020.7mb 62f
2:50pm 16 23 mph 1020.7mb 62f
2:35pm 16 23 mph 1020.5mb 63f
2:20pm 21 31 mph 1020.4mb 63f
2:05pm 16 24 mph 1020.4mb 64f
1:50pm 17 26 mph 1020.4mb 64f
1:35pm 17 28 mph 1020.2mb 64f
1:20pm 20 26 mph 1020.1mb 64f
1:05pm 14 23 mph 1020.3mb 64f
12:50pm 20 29 mph 1020.3mb 63f
12:35pm 15 24 mph 1020.5mb 63f
12:20pm 16 23 mph 1020.8mb 63f
12:05pm 18 24 mph 1020.4mb 63f
11:50am 20 29 mph 1020.5mb 63f
11:35am 17 29 mph 1020.2mb 63f
11:20am 20 26 mph 1020.2mb 62f
11:05am 18 28 mph 1020.2mb 62f
10:50am 24 33 mph 1020mb 62f
10:35am 26 32 mph 1020mb 62f
10:20am 20 30 mph 1019.9mb 62f
10:05am 17 23 mph 1019.8mb 63f
9:50am 18 28 mph 1019.9mb 63f
9:35am 15 23 mph 1019.9mb 63f
9:20am 15 21 mph 1019.9mb 63f
9:05am 16 22 mph 1019.7mb 63f
8:50am 16 24 mph 1019.6mb 63f
8:35am 13 18 mph 1019.4mb 62f
8:20am 14 21 mph 1019.1mb 62f
8:05am 14 20 mph 1019mb 62f
7:50am 13 20 mph 1018.8mb 62f
7:35am 11 17 mph 1018.7mb 62f
7:20am 15 21 mph 1018.4mb 62f
7:05am 15 22 mph 1018.2mb 62f
6:50am 14 21 mph 1018.1mb 62f
6:35am 11 17 mph 1018mb 63f
6:20am 16 23 mph 1017.8mb 63f
6:05am 17 21 mph 1017.7mb 62f
5:50am 10 15 mph 1017.5mb 62f
5:35am 10 13 mph 1017.1mb 62f
5:20am 9 14 mph 1017.1mb 62f
5:05am 10 15 mph 1017.1mb 61f
4:50am 10 14 mph 1017mb 61f
4:35am 9 11 mph 1016.9mb 60f
4:20am 9 14 mph 1016.7mb 60f
4:05am 11 14 mph 1016.8mb 60f
3:50am 8 10 mph 1016.6mb 60f
3:35am 7 11 mph 1016.6mb 60f
3:20am 6 9 mph 1016.6mb 60f
3:05am 5 7 mph 1016.4mb 60f
2:50am 13 15 mph 1016mb 61f
2:35am 11 14 mph 1016mb 61f
2:20am 14 16 mph 1015.8mb 61f
2:05am 14 17 mph 1015.7mb 61f
1:50am 15 16 mph 1015.7mb 61f
1:35am 16 18 mph 1015.7mb 61f
1:20am 15 16 mph 1015.8mb 62f
1:05am 14 15 mph 1015.4mb 62f
Tue 09/27 7:50pm 8 9 mph 1013.3mb 68f
7:35pm 9 10 mph 1013.3mb 68f
7:20pm 7 8 mph 1013.1mb 68f
7:05pm 8 10 mph 1012.9mb 68f
6:50pm 8 9 mph 1012.8mb 68f
6:35pm 9 10 mph 1012.7mb 68f
6:20pm 9 10 mph 1012.7mb 68f
6:05pm 8 9 mph 1012.6mb 69f
5:50pm 7
mph
1012.4mb 69f
5:35pm 5 6 mph 1012mb 70f
5:20pm 5
mph
1011.9mb 69f
5:05pm 6 7 mph 1011.8mb 68f
4:50pm 7 8 mph 1011.9mb 69f
4:35pm 8 9 mph 1011.9mb 69f
4:20pm 8 9 mph 1011.9mb 69f
4:05pm 3 5 mph 1011.6mb 70f
3:50pm 6 7 mph 1011.8mb 69f
3:35pm 6 7 mph 1011.7mb 69f
3:20pm 5 6 mph 1011.8mb 70f
3:05pm 5 6 mph 1011.8mb 70f
2:50pm 6 7 mph 1012mb 70f
2:35pm 6 7 mph 1012mb 70f
2:20pm 6 7 mph 1012mb 70f
2:05pm 6
mph
1011.9mb 69f
1:50pm 3 5 mph 1011.8mb 70f
1:35pm 2 3 mph 1011.8mb 70f
1:20pm 2 3 mph 1012mb 69f
1:05pm 1 2 mph 1012.3mb 72f
12:50pm 2 3 mph 1012.5mb 71f
12:35pm 5 7 mph 1012.5mb 69f
12:20pm 6 7 mph 1012.5mb 69f
12:05pm 6 7 mph 1012.5mb 68f
11:50am 8 10 mph 1012.7mb 67f
11:35am 8 10 mph 1012.7mb 67f
11:20am 9 10 mph 1012.5mb 67f
11:05am 8 10 mph 1012.7mb 67f
10:50am 6 10 mph 1012.8mb 67f
10:35am 7
mph
1012.7mb 67f
10:20am 6 7 mph 1012.6mb 67f
10:05am 6 7 mph 1012.5mb 67f
9:50am 6 8 mph 1012.4mb 66f
9:35am 9 11 mph 1012.5mb 67f
9:20am 6 8 mph 1012.4mb 67f
9:05am 3 5 mph 1012.2mb 67f
8:50am 6 7 mph 1012.1mb 67f
8:35am 8 10 mph 1012mb 67f
8:20am 9 11 mph 1012mb 67f
8:05am 11 14 mph 1011.7mb 67f
7:50am 15 18 mph 1011.7mb 67f
7:35am 18 21 mph 1011.8mb 67f
7:20am 17 21 mph 1011.7mb 68f
7:05am 20 23 mph 1011.4mb 69f
6:50am 23 26 mph 1011.3mb 69f
6:35am 28 32 mph 1010.7mb 69f
6:20am 29 33 mph 1010.3mb 68f
6:05am 25 29 mph 1010.7mb 67f
5:50am 23 28 mph 1011mb 67f
5:35am 21 24 mph 1011.3mb 67f
5:20am 23 26 mph 1011.4mb 67f
5:05am 28 34 mph 1011.4mb 67f
4:50am 20 23 mph 1011.8mb 68f
4:35am 20 23 mph 1012mb 69f
4:20am 20 22 mph 1011.9mb 70f
4:05am 20 22 mph 1012.1mb 69f
3:50am 21 23 mph 1012.3mb 69f
3:35am 18 23 mph 1012.5mb 69f
3:20am 22 24 mph 1012.6mb 69f
3:05am 20 24 mph 1012.9mb 69f
2:50am 21 23 mph 1013.2mb 69f
2:35am 18 21 mph 1013.6mb 69f
2:20am 18 21 mph 1013.9mb 69f
2:05am 20 22 mph 1014.1mb 68f
1:50am 22 25 mph 1014.1mb 68f
1:35am 23 25 mph 1014.1mb 68f
1:20am 24 26 mph 1014mb 68f
1:05am 24 26 mph 1014.1mb 68f
Mon 09/26 7:50pm 21 24 mph 1017.7mb 65f
7:35pm 20 22 mph 1017.8mb 65f
7:20pm 21 24 mph 1018mb 65f
7:05pm 18 24 mph 1017.9mb 65f
6:50pm 18 21 mph 1018mb 65f
6:35pm 20 23 mph 1018mb 64f
6:20pm 18 22 mph 1018.3mb 64f
6:05pm 18 21 mph 1018.5mb 65f
5:50pm 17 21 mph 1018.6mb 65f
5:35pm 16 20 mph 1018.7mb 65f
5:20pm 16 20 mph 1018.9mb 64f
5:05pm 15 18 mph 1019mb 64f
4:50pm 15 17 mph 1019.2mb 64f
4:35pm 11 15 mph 1019.3mb 65f
4:20pm 13 15 mph 1019.6mb 64f
4:05pm 14 17 mph 1019.7mb 65f
3:50pm 13 16 mph 1019.7mb 65f
3:35pm 13 16 mph 1019.9mb 65f
3:20pm 9 13 mph 1020.1mb 63f
3:05pm 8 10 mph 1020.2mb 63f
2:50pm 9 11 mph 1020.3mb 63f
2:35pm 9 11 mph 1020.5mb 63f
2:20pm 7 10 mph 1020.5mb 62f
2:05pm 8 10 mph 1020.6mb 62f
1:50pm 8 9 mph 1020.8mb 62f
1:35pm 8 11 mph 1021mb 62f
1:20pm 8 9 mph 1021.2mb 62f
1:05pm 7 9 mph 1021.3mb 61f
12:50pm 7 9 mph 1021.6mb 61f
12:35pm 7 9 mph 1021.7mb 61f
12:20pm 7 9 mph 1021.6mb 61f
12:05pm 6 9 mph 1021.8mb 62f
11:50am 7 9 mph 1021.8mb 61f
11:35am 3 6 mph 1022mb 62f
11:20am 5 7 mph 1022.3mb 61f
11:05am 5 6 mph 1022.4mb 60f
10:50am 6 7 mph 1022.4mb 60f
10:35am 7 10 mph 1022.4mb 60f
10:20am 6 7 mph 1022.5mb 60f
10:05am 6 8 mph 1022.7mb 59f
9:50am 5 7 mph 1022.9mb 59f
9:35am 5 7 mph 1023mb 59f
9:20am 6 8 mph 1023mb 57f
9:05am 9 13 mph 1022.8mb 56f
8:50am 10 11 mph 1023mb 55f
8:35am 9 11 mph 1023mb 54f
8:20am 11 14 mph 1022.9mb 53f
8:05am 10 14 mph 1022.8mb 52f
7:50am 10 13 mph 1022.8mb 52f
7:35am 13 15 mph 1022.6mb 51f
7:20am 13 16 mph 1022.7mb 50f
7:05am 14 16 mph 1022.4mb 50f
6:50am 11 13 mph 1022.3mb 49f
6:35am 8 10 mph 1022.4mb 48f
6:20am 10 11 mph 1022.3mb 49f
6:05am 10 13 mph 1022.1mb 49f
5:50am 11 14 mph 1021.8mb 49f
5:35am 9 10 mph 1021.7mb 49f
5:20am 10 11 mph 1021.6mb 49f
5:05am 8 10 mph 1021.6mb 50f
4:50am 7 9 mph 1021.6mb 50f
4:35am 6 8 mph 1021.5mb 50f
4:20am 9 11 mph 1021.6mb 51f
4:05am 11 13 mph 1021.6mb 51f
3:50am 9 11 mph 1021.7mb 51f
3:35am 8 10 mph 1021.7mb 52f
3:20am 7 9 mph 1021.8mb 51f
3:05am 11 13 mph 1021.8mb 52f
2:50am 11 13 mph 1022mb 52f
2:35am 8 10 mph 1022.1mb 52f
2:20am 10 13 mph 1022.1mb 52f
2:05am 10 13 mph 1022mb 53f
1:50am 11 13 mph 1022mb 53f
1:35am 8 10 mph 1022mb 53f
1:20am 10 13 mph 1022mb 53f
1:05am 11 14 mph 1022mb 54f
Sun 09/25 7:50pm 10 13 mph 1020.1mb 62f
7:35pm 13 14 mph 1019.9mb 62f
7:20pm 10 11 mph 1019.8mb 62f
7:05pm 9 10 mph 1019.7mb 63f
6:50pm 9 11 mph 1019.4mb 64f
6:35pm 10 13 mph 1019.1mb 65f
6:20pm 11 14 mph 1018.8mb 65f
6:05pm 10 14 mph 1018.6mb 66f
5:50pm 14 16 mph 1018.5mb 67f
5:35pm 10 14 mph 1018.4mb 67f
5:20pm 11 14 mph 1018.4mb 67f
5:05pm 17 21 mph 1018.2mb 67f
4:50pm 13 16 mph 1018.2mb 67f
4:35pm 15 17 mph 1018.1mb 67f
4:20pm 15 20 mph 1018.1mb 67f
4:05pm 17 21 mph 1018.3mb 66f
3:50pm 17 24 mph 1018.2mb 66f
3:35pm 14 25 mph 1018.3mb 66f
3:20pm 10 15 mph 1018.4mb 67f
3:05pm 13 16 mph 1018.5mb 66f
2:50pm 9 14 mph 1018.6mb 66f
2:35pm 16 23 mph 1018.6mb 66f
2:20pm 16 22 mph 1018.7mb 65f
2:05pm 13 16 mph 1019mb 65f
1:50pm 16 21 mph 1019.1mb 64f
1:35pm 17 22 mph 1019.2mb 64f
1:20pm 20 23 mph 1019.4mb 63f
1:05pm 18 24 mph 1019.6mb 63f
12:50pm 13 18 mph 1019.8mb 63f
12:35pm 14 20 mph 1020mb 62f
12:20pm 11 16 mph 1020.2mb 62f
12:05pm 14 17 mph 1020.2mb 61f
11:50am 15 20 mph 1020.3mb 61f
11:35am 22 26 mph 1020.2mb 60f
11:20am 20 24 mph 1020.4mb 60f